Time;durP1;ratioP1;P1;durP2;ratioP2;P2;SDS_P1;SDS_P2;PMS_P1;PMS_P2;Temp;Humidity;BMP_temperature;BMP_pressure;BME280_temperature;BME280_humidity;BME280_pressure;Samples;Min_cycle;Max_cycle;Signal;HPM_P1;HPM_P2
2021/05/12 00:00:19;;;;;;;133.90;61.28;;;;;;;13.23;100.00;96924.53;5024910;28;20046;-83
2021/05/12 00:02:48;;;;;;;132.88;59.60;;;;;;;13.35;100.00;96894.53;4998556;28;20058;-84
2021/05/12 00:05:17;;;;;;;128.93;57.22;;;;;;;13.35;100.00;96880.94;5019846;28;20049;-83
2021/05/12 00:07:46;;;;;;;120.50;57.08;;;;;;;13.37;100.00;96903.13;5021493;28;20111;-84
2021/05/12 00:10:16;;;;;;;125.43;59.25;;;;;;;13.35;100.00;96927.16;5019660;28;20046;-84
2021/05/12 00:12:43;;;;;;;134.30;60.97;;;;;;;13.31;100.00;96948.03;5054570;28;20046;-86
2021/05/12 00:15:13;;;;;;;123.10;58.30;;;;;;;13.26;100.00;96961.09;5039711;28;20045;-85
2021/05/12 00:17:45;;;;;;;115.25;55.95;;;;;;;13.17;100.00;96969.38;5038987;28;20060;-84
2021/05/12 00:20:14;;;;;;;118.32;56.47;;;;;;;13.13;100.00;96954.13;5038601;28;20053;-84
2021/05/12 00:22:50;;;;;;;105.28;53.70;;;;;;;13.09;100.00;96957.53;5039166;28;20057;-82
2021/05/12 00:25:17;;;;;;;112.05;54.08;;;;;;;13.07;100.00;96940.00;5021831;28;20126;-85
2021/05/12 00:27:44;;;;;;;109.55;53.80;;;;;;;13.07;100.00;96948.94;5036016;28;20075;-83
2021/05/12 00:30:15;;;;;;;110.72;55.88;;;;;;;13.06;100.00;96941.09;5020648;28;20041;-82
2021/05/12 00:32:42;;;;;;;108.68;53.45;;;;;;;13.07;100.00;96948.94;5046800;28;20049;-84
2021/05/12 00:35:10;;;;;;;110.97;53.58;;;;;;;13.13;100.00;96946.78;5039553;28;20048;-83
2021/05/12 00:37:38;;;;;;;111.78;53.38;;;;;;;13.13;100.00;96945.97;5038250;28;20045;-85
2021/05/12 00:40:07;;;;;;;104.30;51.78;;;;;;;13.08;100.00;96939.66;5027656;28;20085;-84
2021/05/12 00:42:36;;;;;;;121.25;53.42;;;;;;;13.11;100.00;96940.88;5048063;28;20048;-83
2021/05/12 00:45:05;;;;;;;109.47;52.95;;;;;;;13.16;100.00;96945.28;5056287;28;20053;-85
2021/05/12 00:47:33;;;;;;;107.40;52.35;;;;;;;13.11;100.00;96949.03;5043097;28;20147;-86
2021/05/12 00:50:07;;;;;;;102.22;51.78;;;;;;;13.11;100.00;96957.19;5019216;28;20045;-85
2021/05/12 00:52:34;;;;;;;102.22;51.70;;;;;;;13.12;100.00;96956.06;5023912;28;20044;-82
2021/05/12 00:55:00;;;;;;;92.10;49.55;;;;;;;13.06;100.00;96957.41;5038997;28;20049;-85
2021/05/12 00:57:27;;;;;;;92.85;48.28;;;;;;;13.02;100.00;96956.53;5037465;28;20052;-86
2021/05/12 00:59:56;;;;;;;87.85;46.53;;;;;;;13.05;100.00;96961.28;5020655;28;20069;-84
2021/05/12 01:02:23;;;;;;;86.85;45.88;;;;;;;13.04;100.00;96956.97;5021982;28;20424;-83
2021/05/12 01:04:49;;;;;;;87.07;46.67;;;;;;;13.08;100.00;96949.75;5021437;28;20140;-85
2021/05/12 01:07:18;;;;;;;91.40;45.28;;;;;;;13.07;100.00;96959.03;5036787;28;20124;-84
2021/05/12 01:09:44;;;;;;;88.15;43.95;;;;;;;13.10;100.00;96967.28;5038336;28;20037;-86
2021/05/12 01:12:11;;;;;;;90.63;44.85;;;;;;;13.05;100.00;96978.38;5048783;28;20047;-83
2021/05/12 01:14:38;;;;;;;85.32;45.20;;;;;;;13.07;100.00;96987.00;5040406;28;20068;-83
2021/05/12 01:17:05;;;;;;;81.53;43.85;;;;;;;13.09;100.00;96975.75;5057246;28;20068;-84
2021/05/12 01:19:33;;;;;;;78.70;43.95;;;;;;;13.10;100.00;96971.91;5055929;28;20040;-85
2021/05/12 01:22:00;;;;;;;82.43;44.13;;;;;;;13.13;100.00;96978.59;5057795;28;20045;-83
2021/05/12 01:24:27;;;;;;;85.10;45.47;;;;;;;13.15;100.00;96987.19;5063093;28;20144;-84
2021/05/12 01:26:53;;;;;;;81.55;44.85;;;;;;;13.08;100.00;96982.34;5058721;28;20051;-85
2021/05/12 01:29:22;;;;;;;75.05;43.58;;;;;;;13.08;100.00;96979.63;5038873;28;20105;-86
2021/05/12 01:31:49;;;;;;;77.32;42.75;;;;;;;13.10;100.00;96990.94;5055183;28;20045;-85
2021/05/12 01:34:19;;;;;;;74.30;42.40;;;;;;;13.08;100.00;96987.78;5056152;28;20216;-84
2021/05/12 01:36:47;;;;;;;73.90;42.95;;;;;;;13.08;100.00;96998.66;5039183;28;20052;-85
2021/05/12 01:39:17;;;;;;;80.25;44.05;;;;;;;13.14;100.00;96997.25;5052804;28;20045;-86
2021/05/12 01:41:44;;;;;;;69.68;42.33;;;;;;;13.13;100.00;97001.13;5034176;28;20048;-84
2021/05/12 01:44:14;;;;;;;72.28;42.78;;;;;;;13.16;100.00;96986.84;5035211;28;20073;-86
2021/05/12 01:46:43;;;;;;;70.30;42.33;;;;;;;13.16;100.00;96983.34;5037276;28;20045;-84
2021/05/12 01:49:10;;;;;;;71.05;42.47;;;;;;;13.13;100.00;96987.53;5035639;28;20042;-83
2021/05/12 01:51:39;;;;;;;70.43;40.97;;;;;;;13.08;100.00;96974.97;5037841;28;20053;-85
2021/05/12 01:54:10;;;;;;;69.70;42.17;;;;;;;13.15;100.00;96979.03;5036039;28;20393;-85
2021/05/12 01:56:38;;;;;;;77.38;44.15;;;;;;;13.15;100.00;96981.75;5033969;28;20099;-83
2021/05/12 01:59:06;;;;;;;73.15;43.53;;;;;;;13.10;100.00;96980.88;5033678;28;20120;-85
2021/05/12 02:01:33;;;;;;;73.78;42.72;;;;;;;13.10;100.00;96980.88;5018076;28;20119;-85
2021/05/12 02:04:05;;;;;;;76.07;41.88;;;;;;;13.08;100.00;96977.69;5037396;28;20037;-84
2021/05/12 02:06:32;;;;;;;71.50;40.22;;;;;;;13.05;100.00;96989.25;5018871;28;20441;-83
2021/05/12 02:09:00;;;;;;;65.65;39.00;;;;;;;13.12;100.00;96994.09;5036241;28;20164;-84
2021/05/12 02:11:26;;;;;;;66.63;39.72;;;;;;;13.15;100.00;96981.75;5042956;28;20029;-81
2021/05/12 02:13:53;;;;;;;69.35;39.80;;;;;;;13.10;100.00;96980.06;5021071;28;20464;-82
2021/05/12 02:16:20;;;;;;;67.43;39.28;;;;;;;13.09;100.00;96956.75;5019738;28;20046;-86
2021/05/12 02:18:49;;;;;;;61.97;38.40;;;;;;;13.00;100.00;96956.09;5036153;28;20207;-84
2021/05/12 02:21:16;;;;;;;59.67;38.10;;;;;;;13.05;100.00;96944.97;5023327;28;20049;-82
2021/05/12 02:23:42;;;;;;;64.18;38.80;;;;;;;13.05;100.00;96958.56;5039654;28;20083;-84
2021/05/12 02:26:09;;;;;;;65.03;38.47;;;;;;;13.06;100.00;96947.34;5035488;28;20080;-82
2021/05/12 02:28:36;;;;;;;61.13;37.28;;;;;;;12.92;100.00;96930.66;5037991;28;20097;-84
2021/05/12 02:31:05;;;;;;;66.60;39.10;;;;;;;13.01;100.00;96939.44;5037523;28;20117;-85
2021/05/12 02:33:32;;;;;;;61.40;37.47;;;;;;;13.07;100.00;96946.22;5020029;28;20041;-82
2021/05/12 02:35:58;;;;;;;53.97;33.58;;;;;;;12.99;100.00;96949.88;5044953;28;20072;-84
2021/05/12 02:38:26;;;;;;;52.97;32.67;;;;;;;13.00;100.00;96940.59;5034589;28;20041;-84
2021/05/12 02:40:53;;;;;;;56.15;32.55;;;;;;;12.98;100.00;96945.56;5036469;28;20195;-83
2021/05/12 02:43:19;;;;;;;52.13;32.03;;;;;;;13.05;100.00;96939.53;5058076;22;20045;-81
2021/05/12 02:45:46;;;;;;;56.30;32.22;;;;;;;13.06;100.00;96954.69;5057345;28;20053;-83
2021/05/12 02:48:12;;;;;;;56.47;32.30;;;;;;;13.02;100.00;96960.03;5024907;28;20405;-81
2021/05/12 02:50:41;;;;;;;54.33;34.03;;;;;;;13.00;100.00;96975.13;5025244;28;20057;-81
2021/05/12 02:53:11;;;;;;;57.45;34.53;;;;;;;12.96;100.00;96974.22;5042891;28;20129;-80
2021/05/12 02:55:38;;;;;;;60.72;33.92;;;;;;;12.95;100.00;96972.66;5024668;28;20037;-83
2021/05/12 02:58:06;;;;;;;62.95;34.80;;;;;;;12.96;100.00;96960.63;5044098;28;20037;-82
2021/05/12 03:00:36;;;;;;;62.90;36.40;;;;;;;12.95;100.00;96956.34;5026204;28;20084;-80
2021/05/12 03:03:03;;;;;;;62.92;35.47;;;;;;;12.98;100.00;96955.66;5026493;28;20300;-83
2021/05/12 03:05:31;;;;;;;60.33;36.70;;;;;;;12.98;100.00;96959.13;5046793;28;20390;-82
2021/05/12 03:07:58;;;;;;;63.42;35.95;;;;;;;12.95;100.00;96945.47;5047298;28;20052;-82
2021/05/12 03:10:31;;;;;;;60.33;35.08;;;;;;;12.96;100.00;96952.47;5045844;28;20103;-81
2021/05/12 03:12:58;;;;;;;60.63;34.63;;;;;;;12.93;100.00;96939.59;5043416;28;20068;-82
2021/05/12 03:15:26;;;;;;;63.72;34.92;;;;;;;12.96;100.00;96953.28;5029303;28;20049;-82
2021/05/12 03:17:55;;;;;;;56.25;34.70;;;;;;;13.04;100.00;96951.53;5051285;28;20101;-80
2021/05/12 03:20:23;;;;;;;53.33;32.40;;;;;;;13.02;100.00;96951.09;5045573;28;20041;-81
2021/05/12 03:22:52;;;;;;;50.10;31.08;;;;;;;13.02;100.00;96943.75;5020492;28;20125;-81
2021/05/12 03:25:19;;;;;;;54.95;33.65;;;;;;;12.99;100.00;96954.50;5036599;28;20153;-81
2021/05/12 03:27:46;;;;;;;55.53;32.65;;;;;;;12.98;100.00;96951.00;5035340;28;20072;-81
2021/05/12 03:30:17;;;;;;;51.35;31.35;;;;;;;12.99;100.00;96973.53;5034784;28;20045;-81
2021/05/12 03:32:46;;;;;;;49.08;30.80;;;;;;;13.00;100.00;96975.91;5015592;28;20052;-81
2021/05/12 03:35:13;;;;;;;47.58;30.35;;;;;;;13.00;100.00;96978.63;5033108;28;20042;-81
2021/05/12 03:37:41;;;;;;;54.47;30.00;;;;;;;13.00;100.00;96967.75;5033118;28;20042;-81
2021/05/12 03:40:08;;;;;;;45.58;29.42;;;;;;;13.00;100.00;96969.69;5007040;28;20061;-80
2021/05/12 03:42:34;;;;;;;47.03;29.02;;;;;;;13.01;100.00;96969.31;5015287;28;20057;-80
2021/05/12 03:45:04;;;;;;;43.42;28.58;;;;;;;12.96;100.00;96974.22;5015256;28;20046;-82
2021/05/12 03:47:30;;;;;;;49.22;28.50;;;;;;;12.94;100.00;96982.72;5010287;28;20123;-81
2021/05/12 03:49:58;;;;;;;42.20;27.98;;;;;;;12.98;100.00;96991.75;5018809;28;20053;-81
2021/05/12 03:52:24;;;;;;;38.85;26.77;;;;;;;13.03;100.00;96993.44;5040936;28;20083;-81
2021/05/12 03:54:51;;;;;;;39.63;26.90;;;;;;;12.99;100.00;96977.03;5052110;28;20046;-81
2021/05/12 03:57:18;;;;;;;41.60;26.20;;;;;;;12.96;100.00;96980.44;5052884;28;20042;-80
2021/05/12 03:59:45;;;;;;;40.42;24.80;;;;;;;12.99;100.00;96963.44;5034655;28;20041;-80
2021/05/12 04:02:12;;;;;;;38.17;25.85;;;;;;;12.87;100.00;96955.34;5052302;28;20025;-81
2021/05/12 04:04:39;;;;;;;39.33;24.23;;;;;;;13.04;100.00;96982.22;5021648;28;20029;-80
2021/05/12 04:07:08;;;;;;;36.80;22.58;;;;;;;12.99;100.00;96978.94;5037265;28;20041;-80
2021/05/12 04:09:35;;;;;;;36.10;22.58;;;;;;;13.03;100.00;96991.50;5054613;28;20049;-80
2021/05/12 04:12:02;;;;;;;35.70;23.40;;;;;;;12.98;100.00;96986.31;5050625;28;20071;-80
2021/05/12 04:14:29;;;;;;;37.10;22.45;;;;;;;12.97;100.00;96995.63;5046837;28;20045;-79
2021/05/12 04:16:55;;;;;;;32.58;21.88;;;;;;;12.92;100.00;96984.19;5051785;28;20050;-81
2021/05/12 04:19:22;;;;;;;33.53;21.95;;;;;;;12.95;100.00;96989.75;5052888;28;20085;-81
2021/05/12 04:21:49;;;;;;;36.83;22.58;;;;;;;12.94;100.00;96990.06;5030471;28;20030;-81
2021/05/12 04:24:15;;;;;;;37.95;22.75;;;;;;;13.01;100.00;96995.69;5024124;28;20085;-81
2021/05/12 04:26:42;;;;;;;32.50;20.77;;;;;;;12.98;100.00;97004.56;5025251;28;20053;-81
2021/05/12 04:29:09;;;;;;;32.33;21.33;;;;;;;13.01;100.00;97012.00;5006253;28;20408;-82
2021/05/12 04:31:36;;;;;;;30.92;21.27;;;;;;;13.04;100.00;97014.03;5003736;28;20076;-80
2021/05/12 04:34:05;;;;;;;27.20;18.17;;;;;;;13.00;100.00;97018.59;5004873;28;20473;-82
2021/05/12 04:36:32;;;;;;;33.85;19.20;;;;;;;12.97;100.00;97014.63;5014950;28;20531;-73
2021/05/12 04:39:01;;;;;;;21.85;14.38;;;;;;;12.87;100.00;97008.91;5010173;28;20046;-73
2021/05/12 04:41:27;;;;;;;19.88;13.55;;;;;;;12.83;100.00;97022.34;5012764;28;20049;-78
2021/05/12 04:43:54;;;;;;;20.08;13.93;;;;;;;12.89;100.00;97028.34;4986582;28;20054;-80
2021/05/12 04:46:25;;;;;;;19.40;13.70;;;;;;;12.81;100.00;97027.34;5031527;28;20050;-82
2021/05/12 04:48:53;;;;;;;21.15;13.32;;;;;;;12.77;100.00;97036.53;5028984;28;20502;-80
2021/05/12 04:51:21;;;;;;;18.48;12.90;;;;;;;12.78;100.00;97038.91;5005019;28;20065;-81
2021/05/12 04:53:47;;;;;;;17.73;12.13;;;;;;;12.74;100.00;97054.31;5023575;28;20046;-81
2021/05/12 04:56:15;;;;;;;18.70;12.57;;;;;;;12.68;100.00;97050.25;5022019;28;20054;-81
2021/05/12 04:58:44;;;;;;;20.85;12.98;;;;;;;12.69;100.00;97051.84;5008489;28;20048;-81
2021/05/12 05:01:11;;;;;;;21.67;12.05;;;;;;;12.63;100.00;97046.97;5027670;28;20052;-79
2021/05/12 05:03:42;;;;;;;19.73;12.70;;;;;;;12.62;100.00;97050.81;5030538;28;20468;-79
2021/05/12 05:06:09;;;;;;;24.00;13.93;;;;;;;12.54;100.00;97038.97;5030638;28;20042;-77
2021/05/12 05:08:37;;;;;;;22.58;13.68;;;;;;;12.63;100.00;97049.69;5033217;28;20049;-78
2021/05/12 05:11:04;;;;;;;24.15;13.73;;;;;;;12.60;100.00;97055.78;5032061;28;20057;-78
2021/05/12 05:13:31;;;;;;;21.73;14.13;;;;;;;12.69;100.00;97051.03;5023925;28;20057;-79
2021/05/12 05:15:57;;;;;;;24.35;14.80;;;;;;;12.66;100.00;97054.44;5022832;28;20045;-78
2021/05/12 05:18:24;;;;;;;24.83;14.80;;;;;;;12.70;100.00;97056.09;5027400;28;20038;-82
2021/05/12 05:20:53;;;;;;;24.98;15.35;;;;;;;12.69;100.00;97054.53;5014676;28;20125;-80
2021/05/12 05:23:21;;;;;;;22.52;14.18;;;;;;;12.65;100.00;97048.19;5013472;28;20124;-81
2021/05/12 05:25:48;;;;;;;26.25;14.77;;;;;;;12.69;100.00;97049.13;5012295;28;20054;-79
2021/05/12 05:28:14;;;;;;;26.33;15.60;;;;;;;12.76;100.00;97053.97;5032662;28;20057;-80
2021/05/12 05:30:41;;;;;;;24.88;15.38;;;;;;;12.79;100.00;97056.78;5023579;28;20046;-80
2021/05/12 05:33:08;;;;;;;29.95;15.88;;;;;;;12.80;100.00;97047.50;5030448;28;20053;-81
2021/05/12 05:35:34;;;;;;;27.98;15.27;;;;;;;12.77;100.00;97048.19;5142626;22;20057;-80
2021/05/12 05:38:01;;;;;;;26.83;15.60;;;;;;;12.83;100.00;97043.28;5073568;28;20032;-79
2021/05/12 05:40:28;;;;;;;26.45;15.48;;;;;;;12.83;100.00;97043.28;5046234;28;20061;-81
2021/05/12 05:43:01;;;;;;;23.40;14.50;;;;;;;12.74;100.00;97054.31;5023410;28;20044;-80
2021/05/12 05:45:28;;;;;;;24.08;14.60;;;;;;;12.76;100.00;97052.03;5000371;28;20049;-81
2021/05/12 05:47:55;;;;;;;20.42;13.35;;;;;;;12.72;100.00;97053.88;5048966;28;20072;-81
2021/05/12 05:50:22;;;;;;;26.77;13.40;;;;;;;12.72;100.00;97064.72;5055063;28;20049;-81
2021/05/12 05:52:52;;;;;;;22.05;13.95;;;;;;;12.65;100.00;97060.97;5056262;28;20045;-81
2021/05/12 05:55:19;;;;;;;23.05;14.45;;;;;;;12.68;100.00;97061.09;5066801;28;20051;-79
2021/05/12 05:57:47;;;;;;;23.25;13.95;;;;;;;12.70;100.00;97061.53;5024020;28;20045;-81
2021/05/12 06:00:14;;;;;;;22.45;14.13;;;;;;;12.67;100.00;97061.47;5012595;28;20084;-80
2021/05/12 06:02:43;;;;;;;22.27;13.68;;;;;;;12.69;100.00;97059.19;5033972;28;20044;-79
2021/05/12 06:05:12;;;;;;;24.23;13.93;;;;;;;12.67;100.00;97056.78;5041196;28;20040;-79
2021/05/12 06:07:39;;;;;;;27.73;13.73;;;;;;;12.66;100.00;97054.44;5039933;28;20635;-81
2021/05/12 06:10:08;;;;;;;24.88;14.88;;;;;;;12.69;100.00;97056.47;5028764;28;20038;-81
2021/05/12 06:12:36;;;;;;;20.13;13.07;;;;;;;12.73;100.00;97041.06;5053405;28;20512;-80
2021/05/12 06:15:04;;;;;;;19.92;12.45;;;;;;;12.68;100.00;97052.16;5064111;28;20049;-82
2021/05/12 06:17:50;;;;;;;21.35;12.40;;;;;;;12.68;100.00;97036.66;5044783;28;20082;-83
2021/05/12 06:20:18;;;;;;;27.55;13.73;;;;;;;12.67;100.00;97056.03;5057666;28;20045;-81
2021/05/12 06:22:45;;;;;;;24.58;14.40;;;;;;;12.68;100.00;97049.44;5021698;28;20045;-84
2021/05/12 06:25:13;;;;;;;24.75;14.23;;;;;;;12.77;100.00;97058.25;5038231;28;20115;-82
2021/05/12 06:27:41;;;;;;;23.75;13.73;;;;;;;12.76;100.00;97046.59;5054490;28;20069;-82
2021/05/12 06:30:09;;;;;;;24.42;12.85;;;;;;;12.81;100.00;97045.56;5037947;28;20381;-83
2021/05/12 06:32:36;;;;;;;21.45;12.88;;;;;;;12.81;100.00;97057.22;5031669;28;20040;-83
2021/05/12 06:35:03;;;;;;;22.98;13.82;;;;;;;12.76;100.00;97046.59;5035766;28;20045;-81
2021/05/12 06:37:29;;;;;;;21.67;13.10;;;;;;;12.71;100.00;97044.13;5032144;28;20041;-82
2021/05/12 06:39:56;;;;;;;24.58;12.25;;;;;;;12.77;100.00;97045.47;5049626;28;20052;-80
2021/05/12 06:42:25;;;;;;;25.42;13.98;;;;;;;12.75;100.00;97055.88;5033859;28;20041;-82
2021/05/12 06:44:52;;;;;;;24.15;13.43;;;;;;;12.82;100.00;97049.88;5034676;28;20075;-83
2021/05/12 06:47:18;;;;;;;22.85;13.57;;;;;;;12.77;100.00;97044.69;5035417;28;20041;-81
2021/05/12 06:49:46;;;;;;;24.73;13.93;;;;;;;12.74;100.00;97059.75;5011427;28;20042;-82
2021/05/12 06:52:12;;;;;;;23.35;13.65;;;;;;;12.76;100.00;97048.53;5027718;28;20557;-82
2021/05/12 06:54:39;;;;;;;27.23;15.25;;;;;;;12.82;100.00;97052.59;5027424;28;20057;-82
2021/05/12 06:57:06;;;;;;;30.40;17.08;;;;;;;12.81;100.00;97062.66;5031316;28;20080;-81
2021/05/12 06:59:32;;;;;;;24.20;15.90;;;;;;;12.82;100.00;97055.31;5032796;28;20046;-81
2021/05/12 07:01:59;;;;;;;27.95;16.58;;;;;;;12.81;100.00;97059.94;5015283;28;20054;-81
2021/05/12 07:04:25;;;;;;;28.50;17.40;;;;;;;12.84;100.00;97059.25;5014867;28;20045;-82
2021/05/12 07:19:21;;;;;;;33.40;17.88;;;;;;;12.84;100.00;97064.69;5063213;22;20033;-78
2021/05/12 07:21:49;;;;;;;31.20;18.13;;;;;;;12.83;100.00;97068.53;5016789;28;20053;-79
2021/05/12 07:24:15;;;;;;;36.63;19.60;;;;;;;12.82;100.00;97049.88;5042110;28;20049;-78
2021/05/12 07:26:42;;;;;;;41.50;21.20;;;;;;;12.89;100.00;97041.94;5044264;28;20092;-80
2021/05/12 07:29:10;;;;;;;43.47;21.05;;;;;;;12.84;100.00;97023.16;5056334;28;20052;-81
2021/05/12 07:31:39;;;;;;;38.15;20.23;;;;;;;12.88;100.00;97026.75;5044291;28;20068;-81
2021/05/12 07:34:10;;;;;;;35.15;18.65;;;;;;;12.91;100.00;97039.66;5069402;23;20132;-78
2021/05/12 07:36:37;;;;;;;37.60;19.70;;;;;;;12.88;100.00;97032.19;5049807;28;20120;-81
2021/05/12 07:39:06;;;;;;;37.10;18.85;;;;;;;12.83;100.00;97048.72;5070739;28;20048;-79
2021/05/12 07:41:37;;;;;;;38.65;20.63;;;;;;;12.89;100.00;97039.22;5038790;28;20060;-77
2021/05/12 07:44:04;;;;;;;35.28;19.25;;;;;;;12.88;100.00;97037.63;5048401;28;20064;-82
2021/05/12 07:46:32;;;;;;;36.08;18.95;;;;;;;12.86;100.00;97043.41;5054527;28;20101;-80
2021/05/12 07:49:00;;;;;;;38.08;20.15;;;;;;;12.88;100.00;97043.06;5070342;28;20040;-80
2021/05/12 07:51:27;;;;;;;36.95;18.73;;;;;;;12.78;100.00;97036.19;5038806;28;20059;-82
2021/05/12 07:53:54;;;;;;;36.63;19.27;;;;;;;12.85;100.00;97058.13;5045549;28;20129;-81
2021/05/12 07:56:24;;;;;;;33.83;17.20;;;;;;;12.85;100.00;97060.06;5041280;28;20044;-83
2021/05/12 07:58:50;;;;;;;36.03;18.38;;;;;;;12.81;100.00;97049.09;5058669;28;20755;-82
2021/05/12 08:01:19;;;;;;;25.35;15.38;;;;;;;12.79;100.00;97064.13;5039849;28;20776;-80
2021/05/12 08:03:51;;;;;;;32.08;17.05;;;;;;;12.84;100.00;97066.63;5056395;28;20055;-80
2021/05/12 08:06:18;;;;;;;31.23;16.67;;;;;;;12.90;100.00;97068.78;5060936;28;20044;-81
2021/05/12 08:08:48;;;;;;;30.48;16.10;;;;;;;12.85;100.00;97060.06;5076305;28;20190;-78
2021/05/12 08:11:15;;;;;;;28.52;15.65;;;;;;;12.90;100.00;97065.25;5042274;28;20051;-81
2021/05/12 08:13:43;;;;;;;25.35;14.23;;;;;;;12.90;100.00;97059.81;5058833;28;20060;-79
2021/05/12 08:16:09;;;;;;;21.20;12.07;;;;;;;12.93;100.00;97073.50;5044874;28;20064;-80
2021/05/12 08:18:36;;;;;;;25.23;13.18;;;;;;;12.95;100.00;97065.00;5055790;28;20078;-80
2021/05/12 08:21:05;;;;;;;23.27;13.57;;;;;;;12.96;100.00;97061.16;5049880;28;20102;-78
2021/05/12 08:23:32;;;;;;;21.23;12.43;;;;;;;12.98;100.00;97064.34;5052482;28;20044;-78
2021/05/12 08:26:01;;;;;;;24.65;14.00;;;;;;;13.06;100.00;97063.38;5052694;28;20108;-79
2021/05/12 08:28:27;;;;;;;21.73;13.45;;;;;;;13.09;100.00;97066.25;5057008;28;20506;-79
2021/05/12 08:30:56;;;;;;;21.08;12.98;;;;;;;13.07;100.00;97045.97;5057437;28;20040;-77
2021/05/12 08:33:24;;;;;;;20.42;13.38;;;;;;;13.09;100.00;97047.22;5060446;28;20090;-77
2021/05/12 08:35:52;;;;;;;24.33;14.30;;;;;;;13.16;100.00;97051.28;5063743;28;20049;-78
2021/05/12 08:38:20;;;;;;;23.77;14.20;;;;;;;13.14;100.00;97054.31;5020373;28;20053;-79
2021/05/12 08:40:50;;;;;;;23.45;13.60;;;;;;;13.16;100.00;97048.56;5051374;28;20072;-80
2021/05/12 08:43:18;;;;;;;22.42;12.90;;;;;;;13.22;100.00;97052.59;5038551;28;20048;-81
2021/05/12 08:45:48;;;;;;;20.02;13.85;;;;;;;13.16;100.00;97049.38;5041722;28;20079;-79
2021/05/12 08:48:17;;;;;;;21.08;13.65;;;;;;;13.09;100.00;97051.84;5060867;28;20048;-79
2021/05/12 08:50:45;;;;;;;20.00;12.68;;;;;;;13.14;100.00;97057.03;5057582;28;20539;-80
2021/05/12 08:53:12;;;;;;;21.67;13.07;;;;;;;13.10;100.00;97061.59;5064731;28;20131;-80
2021/05/12 08:55:39;;;;;;;19.90;12.82;;;;;;;13.00;100.00;97048.47;5059607;28;20270;-79
2021/05/12 08:58:06;;;;;;;22.20;13.93;;;;;;;13.02;100.00;97038.03;5074405;28;20063;-81
2021/05/12 09:00:33;;;;;;;25.15;14.75;;;;;;;13.04;100.00;97046.63;5078305;28;20036;-79
2021/05/12 09:03:04;;;;;;;27.70;15.77;;;;;;;13.15;100.00;97050.50;5058365;28;20128;-80
2021/05/12 09:05:31;;;;;;;24.02;16.20;;;;;;;13.04;100.00;97052.06;5042312;28;20147;-79
2021/05/12 09:07:58;;;;;;;24.40;15.38;;;;;;;13.11;100.00;97050.38;5057383;28;20066;-79
2021/05/12 09:10:26;;;;;;;21.88;14.23;;;;;;;13.07;100.00;97045.97;5056325;28;20029;-78
2021/05/12 09:12:59;;;;;;;24.33;15.20;;;;;;;13.08;100.00;97048.34;5039869;28;20048;-79
2021/05/12 09:15:29;;;;;;;27.80;16.20;;;;;;;13.13;100.00;97046.53;5057724;28;20040;-78
2021/05/12 09:18:05;;;;;;;24.85;15.25;;;;;;;13.09;100.00;97049.13;5057096;28;20060;-80
2021/05/12 09:20:40;;;;;;;24.75;15.13;;;;;;;13.09;100.00;97047.22;5031262;28;20088;-79
2021/05/12 09:23:14;;;;;;;26.60;16.37;;;;;;;13.11;100.00;97044.13;5041080;28;20048;-78
2021/05/12 09:25:51;;;;;;;26.25;16.10;;;;;;;13.10;100.00;97056.16;5057152;28;20048;-79
2021/05/12 09:28:20;;;;;;;22.92;15.45;;;;;;;13.01;100.00;97058.19;5063329;28;20135;-79
2021/05/12 09:30:49;;;;;;;24.63;16.33;;;;;;;13.07;100.00;97067.72;5080987;28;20048;-79
2021/05/12 09:33:30;;;;;;;24.02;15.35;;;;;;;13.02;100.00;97055.16;5063025;28;20040;-79
2021/05/12 09:35:58;;;;;;;23.10;13.75;;;;;;;13.02;100.00;97065.22;5067738;28;20056;-79
2021/05/12 09:38:27;;;;;;;21.25;13.70;;;;;;;12.92;100.00;97060.25;5056895;28;20124;-79
2021/05/12 09:41:13;;;;;;;22.33;13.55;;;;;;;12.94;100.00;97058.00;5067957;28;20047;-78
2021/05/12 09:43:50;;;;;;;25.08;14.85;;;;;;;13.02;100.00;97060.56;5040782;28;20047;-79
2021/05/12 09:46:16;;;;;;;23.83;15.02;;;;;;;13.02;100.00;97051.63;5055503;28;20044;-78
2021/05/12 09:48:47;;;;;;;23.02;13.63;;;;;;;13.04;100.00;97060.22;5037000;28;20041;-79
2021/05/12 09:51:16;;;;;;;14.85;10.35;;;;;;;12.92;100.00;97060.25;5056478;28;20049;-78
2021/05/12 09:54:10;;;;;;;14.82;10.20;;;;;;;12.94;100.00;97060.72;5057784;28;20052;-78
2021/05/12 09:56:56;;;;;;;16.50;10.60;;;;;;;12.95;100.00;97067.72;5061911;28;20044;-80
2021/05/12 09:59:28;;;;;;;12.63;9.45;;;;;;;12.93;100.00;97067.28;5061855;28;20048;-79
2021/05/12 10:02:00;;;;;;;12.68;9.65;;;;;;;12.94;100.00;97069.66;5064188;28;20044;-79
2021/05/12 10:04:42;;;;;;;14.68;9.82;;;;;;;12.88;100.00;97062.88;5072888;28;20041;-80
2021/05/12 10:07:23;;;;;;;15.57;9.90;;;;;;;12.86;100.00;97070.56;5066814;28;20128;-79
2021/05/12 10:09:55;;;;;;;16.15;11.15;;;;;;;12.73;100.00;97074.44;5073766;28;20048;-77
2021/05/12 10:12:24;;;;;;;13.48;9.13;;;;;;;12.62;100.00;97067.13;5055779;28;20059;-77
2021/05/12 10:14:52;;;;;;;17.52;10.43;;;;;;;12.62;100.00;97078.75;5054167;28;20051;-78
2021/05/12 10:17:20;;;;;;;19.92;12.07;;;;;;;12.61;100.00;97081.81;5074129;28;20048;-78
2021/05/12 10:19:54;;;;;;;22.25;14.85;;;;;;;12.62;100.00;97067.13;5052698;28;20105;-79
2021/05/12 10:22:21;;;;;;;27.48;16.00;;;;;;;12.50;100.00;97076.06;5032094;28;20158;-79
2021/05/12 10:24:49;;;;;;;30.33;17.63;;;;;;;12.54;100.00;97079.69;5036126;28;20048;-79
2021/05/12 10:27:27;;;;;;;29.85;18.80;;;;;;;12.70;100.00;97077.06;5037119;28;20049;-80
2021/05/12 10:29:58;;;;;;;33.65;20.85;;;;;;;12.71;100.00;97082.16;5037954;28;20576;-79
2021/05/12 10:32:40;;;;;;;37.75;20.80;;;;;;;12.66;100.00;97082.38;5027724;28;20053;-79
2021/05/12 10:35:14;;;;;;;33.00;20.80;;;;;;;12.59;100.00;97081.38;5044186;28;20414;-76
2021/05/12 10:37:46;;;;;;;36.03;21.02;;;;;;;12.68;100.00;97090.19;5043904;28;20044;-79
2021/05/12 10:40:31;;;;;;;36.65;20.65;;;;;;;12.58;100.00;97087.94;5039218;28;20051;-80
2021/05/12 10:43:07;;;;;;;39.58;21.05;;;;;;;12.54;100.00;97092.47;5031709;28;20045;-79
2021/05/12 10:48:28;;;;;;;39.05;22.08;;;;;;;12.67;100.00;97100.25;5059842;28;20452;-79
2021/05/12 10:50:55;;;;;;;39.95;22.83;;;;;;;12.71;100.00;97094.94;5065590;28;20044;-81
2021/05/12 10:53:27;;;;;;;44.58;23.30;;;;;;;12.69;100.00;97099.91;5040112;28;20063;-79
2021/05/12 10:55:57;;;;;;;46.85;24.42;;;;;;;12.77;100.00;97099.00;5033453;28;20045;-80
2021/05/12 10:58:53;;;;;;;40.33;23.58;;;;;;;12.85;100.00;97098.09;5050681;28;20147;-79
2021/05/12 11:01:22;;;;;;;45.40;25.65;;;;;;;12.93;100.00;97081.63;5028768;28;20114;-81
2021/05/12 11:03:52;;;;;;;42.08;25.38;;;;;;;12.96;100.00;97078.25;5047146;28;20092;-83
2021/05/12 11:06:45;;;;;;;42.47;24.92;;;;;;;12.80;100.00;97079.31;5036486;28;20067;-82
2021/05/12 11:09:18;;;;;;;41.17;23.50;;;;;;;12.74;100.00;97091.53;5053646;28;20059;-82
2021/05/12 11:11:45;;;;;;;31.17;19.35;;;;;;;12.71;100.00;97086.78;5053797;28;20051;-77
2021/05/12 11:14:25;;;;;;;29.73;17.73;;;;;;;12.70;100.00;97083.28;5051828;28;20402;-79
2021/05/12 11:17:06;;;;;;;29.30;17.38;;;;;;;12.79;100.00;97080.44;5070304;28;20045;-78
2021/05/12 11:19:40;;;;;;;32.38;18.63;;;;;;;13.06;100.00;97074.25;5053031;28;20052;-79
2021/05/12 11:25:27;;;;;;;27.10;17.67;;;;;;;13.49;100.00;97082.53;5072347;28;20165;-80
2021/05/12 11:34:17;;;;;;;27.80;17.98;;;;;;;13.32;100.00;97069.22;5080164;28;20375;-80
2021/05/12 11:37:17;;;;;;;26.15;17.38;;;;;;;13.45;100.00;97062.59;4984096;28;20058;-80
2021/05/12 11:39:54;;;;;;;26.85;18.20;;;;;;;13.50;100.00;97073.22;4974025;28;20049;-79
2021/05/12 11:42:30;;;;;;;30.90;18.30;;;;;;;13.51;100.00;97077.53;4980674;28;20054;-82